sensor_id;sensor_type;location;lat;lon;timestamp;pressure;altitude;pressure_sealevel;temperature;humidity
27202;BME280;14717;46.924;15.474;2023-11-18T00:00:18;98105.94;;;2.31;100.00
27202;BME280;14717;46.924;15.474;2023-11-18T00:02:43;98107.22;;;2.17;100.00
27202;BME280;14717;46.924;15.474;2023-11-18T00:05:10;98104.47;;;2.06;100.00
27202;BME280;14717;46.924;15.474;2023-11-18T00:07:36;98094.31;;;2.24;100.00
27202;BME280;14717;46.924;15.474;2023-11-18T00:10:02;98100.44;;;2.09;100.00
27202;BME280;14717;46.924;15.474;2023-11-18T00:12:28;98093.59;;;2.06;100.00
27202;BME280;14717;46.924;15.474;2023-11-18T00:14:54;98101.41;;;2.03;100.00
27202;BME280;14717;46.924;15.474;2023-11-18T00:17:19;98105.09;;;2.19;100.00
27202;BME280;14717;46.924;15.474;2023-11-18T00:19:46;98099.16;;;2.11;100.00
27202;BME280;14717;46.924;15.474;2023-11-18T00:22:11;98105.19;;;2.02;100.00
27202;BME280;14717;46.924;15.474;2023-11-18T00:24:37;98116.47;;;2.16;100.00
27202;BME280;14717;46.924;15.474;2023-11-18T00:27:03;98114.31;;;2.18;100.00
27202;BME280;14717;46.924;15.474;2023-11-18T00:29:35;98127.44;;;1.99;100.00
27202;BME280;14717;46.924;15.474;2023-11-18T00:32:03;98116.84;;;1.79;100.00
27202;BME280;14717;46.924;15.474;2023-11-18T00:34:29;98124.53;;;1.82;100.00
27202;BME280;14717;46.924;15.474;2023-11-18T00:36:55;98132.50;;;1.55;100.00
27202;BME280;14717;46.924;15.474;2023-11-18T00:39:24;98130.56;;;1.26;100.00
27202;BME280;14717;46.924;15.474;2023-11-18T00:41:49;98135.69;;;1.34;100.00
27202;BME280;14717;46.924;15.474;2023-11-18T00:44:15;98135.53;;;1.47;100.00
27202;BME280;14717;46.924;15.474;2023-11-18T00:46:41;98130.19;;;1.69;100.00
27202;BME280;14717;46.924;15.474;2023-11-18T00:49:06;98137.28;;;1.70;100.00
27202;BME280;14717;46.924;15.474;2023-11-18T00:51:32;98140.72;;;1.66;100.00
27202;BME280;14717;46.924;15.474;2023-11-18T00:53:58;98150.19;;;1.28;100.00
27202;BME280;14717;46.924;15.474;2023-11-18T00:56:23;98142.72;;;1.24;100.00
27202;BME280;14717;46.924;15.474;2023-11-18T00:58:49;98132.28;;;1.38;100.00
27202;BME280;14717;46.924;15.474;2023-11-18T01:01:14;98149.13;;;1.47;100.00
27202;BME280;14717;46.924;15.474;2023-11-18T01:03:43;98137.72;;;1.56;100.00
27202;BME280;14717;46.924;15.474;2023-11-18T01:06:09;98126.34;;;1.59;100.00
27202;BME280;14717;46.924;15.474;2023-11-18T01:08:34;98123.91;;;1.69;100.00
27202;BME280;14717;46.924;15.474;2023-11-18T01:11:00;98118.78;;;1.61;100.00
27202;BME280;14717;46.924;15.474;2023-11-18T01:13:25;98117.56;;;1.57;100.00
27202;BME280;14717;46.924;15.474;2023-11-18T01:15:51;98129.53;;;1.56;100.00
27202;BME280;14717;46.924;15.474;2023-11-18T01:18:17;98121.25;;;1.63;100.00
27202;BME280;14717;46.924;15.474;2023-11-18T01:20:43;98136.19;;;1.60;100.00
27202;BME280;14717;46.924;15.474;2023-11-18T01:23:08;98135.50;;;1.65;100.00
27202;BME280;14717;46.924;15.474;2023-11-18T01:25:33;98133.63;;;1.76;100.00
27202;BME280;14717;46.924;15.474;2023-11-18T01:28:00;98149.78;;;1.60;100.00
27202;BME280;14717;46.924;15.474;2023-11-18T01:30:25;98143.44;;;1.66;100.00
27202;BME280;14717;46.924;15.474;2023-11-18T01:32:52;98150.47;;;1.85;100.00
27202;BME280;14717;46.924;15.474;2023-11-18T01:35:17;98162.50;;;1.48;100.00
27202;BME280;14717;46.924;15.474;2023-11-18T01:37:42;98160.53;;;1.55;100.00
27202;BME280;14717;46.924;15.474;2023-11-18T01:40:09;98157.50;;;1.63;100.00
27202;BME280;14717;46.924;15.474;2023-11-18T01:42:38;98151.25;;;1.74;100.00
27202;BME280;14717;46.924;15.474;2023-11-18T01:45:04;98152.34;;;1.73;100.00
27202;BME280;14717;46.924;15.474;2023-11-18T01:47:31;98163.44;;;1.71;100.00
27202;BME280;14717;46.924;15.474;2023-11-18T01:49:59;98166.19;;;1.54;100.00
27202;BME280;14717;46.924;15.474;2023-11-18T01:52:26;98176.63;;;1.57;100.00
27202;BME280;14717;46.924;15.474;2023-11-18T01:54:53;98164.34;;;1.66;100.00
27202;BME280;14717;46.924;15.474;2023-11-18T01:57:20;98178.56;;;1.67;100.00
27202;BME280;14717;46.924;15.474;2023-11-18T01:59:46;98173.19;;;1.79;100.00
27202;BME280;14717;46.924;15.474;2023-11-18T02:02:12;98178.91;;;1.89;100.00
27202;BME280;14717;46.924;15.474;2023-11-18T02:04:39;98181.72;;;2.11;100.00
27202;BME280;14717;46.924;15.474;2023-11-18T02:07:04;98180.19;;;2.15;100.00
27202;BME280;14717;46.924;15.474;2023-11-18T02:09:35;98194.91;;;1.97;100.00
27202;BME280;14717;46.924;15.474;2023-11-18T02:12:21;98187.19;;;1.94;100.00
27202;BME280;14717;46.924;15.474;2023-11-18T02:14:49;98192.66;;;1.94;100.00
27202;BME280;14717;46.924;15.474;2023-11-18T02:17:18;98197.78;;;2.02;100.00
27202;BME280;14717;46.924;15.474;2023-11-18T02:19:45;98190.47;;;2.13;100.00
27202;BME280;14717;46.924;15.474;2023-11-18T02:22:11;98195.47;;;2.16;100.00
27202;BME280;14717;46.924;15.474;2023-11-18T02:24:37;98187.03;;;2.07;100.00
27202;BME280;14717;46.924;15.474;2023-11-18T02:27:04;98191.47;;;2.19;100.00
27202;BME280;14717;46.924;15.474;2023-11-18T02:29:34;98191.63;;;2.35;100.00
27202;BME280;14717;46.924;15.474;2023-11-18T02:34:48;98187.59;;;1.97;100.00
27202;BME280;14717;46.924;15.474;2023-11-18T02:37:17;98214.97;;;2.02;100.00
27202;BME280;14717;46.924;15.474;2023-11-18T02:39:45;98198.63;;;2.02;100.00
27202;BME280;14717;46.924;15.474;2023-11-18T02:42:14;98212.94;;;1.98;100.00
27202;BME280;14717;46.924;15.474;2023-11-18T02:44:41;98220.53;;;1.78;100.00
27202;BME280;14717;46.924;15.474;2023-11-18T02:47:08;98229.09;;;1.64;100.00
27202;BME280;14717;46.924;15.474;2023-11-18T02:49:35;98226.75;;;1.67;100.00
27202;BME280;14717;46.924;15.474;2023-11-18T02:52:00;98226.75;;;1.67;100.00
27202;BME280;14717;46.924;15.474;2023-11-18T02:54:26;98223.53;;;1.88;100.00
27202;BME280;14717;46.924;15.474;2023-11-18T02:56:52;98214.25;;;2.07;100.00
27202;BME280;14717;46.924;15.474;2023-11-18T02:59:17;98225.16;;;2.07;100.00
27202;BME280;14717;46.924;15.474;2023-11-18T03:01:43;98222.44;;;2.07;100.00
27202;BME280;14717;46.924;15.474;2023-11-18T03:04:09;98239.69;;;1.71;100.00
27202;BME280;14717;46.924;15.474;2023-11-18T03:06:35;98233.69;;;1.81;100.00
27202;BME280;14717;46.924;15.474;2023-11-18T03:09:01;98221.50;;;1.83;100.00
27202;BME280;14717;46.924;15.474;2023-11-18T03:11:28;98223.56;;;1.70;100.00
27202;BME280;14717;46.924;15.474;2023-11-18T03:13:56;98236.09;;;1.89;100.00
27202;BME280;14717;46.924;15.474;2023-11-18T03:16:22;98223.47;;;1.94;100.00
27202;BME280;14717;46.924;15.474;2023-11-18T03:18:50;98221.50;;;1.83;100.00
27202;BME280;14717;46.924;15.474;2023-11-18T03:21:16;98234.81;;;1.73;100.00
27202;BME280;14717;46.924;15.474;2023-11-18T03:23:41;98228.00;;;1.82;100.00
27202;BME280;14717;46.924;15.474;2023-11-18T03:26:07;98236.56;;;1.86;100.00
27202;BME280;14717;46.924;15.474;2023-11-18T03:28:33;98227.31;;;1.87;100.00
27202;BME280;14717;46.924;15.474;2023-11-18T03:30:59;98237.38;;;1.86;100.00
27202;BME280;14717;46.924;15.474;2023-11-18T03:33:24;98241.50;;;1.60;100.00
27202;BME280;14717;46.924;15.474;2023-11-18T03:35:49;98251.00;;;1.68;100.00
27202;BME280;14717;46.924;15.474;2023-11-18T03:38:15;98255.06;;;1.77;100.00
27202;BME280;14717;46.924;15.474;2023-11-18T03:40:42;98248.75;;;1.66;100.00
27202;BME280;14717;46.924;15.474;2023-11-18T03:43:10;98255.63;;;1.68;100.00
27202;BME280;14717;46.924;15.474;2023-11-18T03:45:38;98262.13;;;1.49;100.00
27202;BME280;14717;46.924;15.474;2023-11-18T03:48:04;98262.75;;;1.51;100.00
27202;BME280;14717;46.924;15.474;2023-11-18T03:50:29;98261.00;;;1.39;100.00
27202;BME280;14717;46.924;15.474;2023-11-18T03:52:55;98252.31;;;1.48;100.00
27202;BME280;14717;46.924;15.474;2023-11-18T03:55:20;98258.50;;;1.37;100.00
27202;BME280;14717;46.924;15.474;2023-11-18T03:57:45;98262.53;;;1.11;100.00
27202;BME280;14717;46.924;15.474;2023-11-18T04:00:11;98268.47;;;1.26;100.00
27202;BME280;14717;46.924;15.474;2023-11-18T04:02:40;98260.38;;;1.19;100.00
27202;BME280;14717;46.924;15.474;2023-11-18T04:05:06;98260.44;;;1.13;100.00
27202;BME280;14717;46.924;15.474;2023-11-18T04:07:33;98257.28;;;1.33;100.00
27202;BME280;14717;46.924;15.474;2023-11-18T04:10:01;98257.16;;;1.46;100.00
27202;BME280;14717;46.924;15.474;2023-11-18T04:12:30;98256.75;;;1.43;100.00
27202;BME280;14717;46.924;15.474;2023-11-18T04:14:55;98260.03;;;1.51;100.00
27202;BME280;14717;46.924;15.474;2023-11-18T04:17:21;98254.03;;;1.43;100.00
27202;BME280;14717;46.924;15.474;2023-11-18T04:19:47;98259.06;;;1.22;100.00
27202;BME280;14717;46.924;15.474;2023-11-18T04:22:14;98252.44;;;1.35;100.00
27202;BME280;14717;46.924;15.474;2023-11-18T04:24:44;98243.97;;;1.26;100.00
27202;BME280;14717;46.924;15.474;2023-11-18T04:27:10;98261.06;;;1.32;100.00
27202;BME280;14717;46.924;15.474;2023-11-18T04:29:38;98258.41;;;1.26;100.00
27202;BME280;14717;46.924;15.474;2023-11-18T04:32:06;98255.44;;;1.10;100.00
27202;BME280;14717;46.924;15.474;2023-11-18T04:34:42;98259.66;;;1.06;100.00
27202;BME280;14717;46.924;15.474;2023-11-18T04:37:32;98258.41;;;1.26;100.00
27202;BME280;14717;46.924;15.474;2023-11-18T04:40:09;98258.09;;;1.16;100.00
27202;BME280;14717;46.924;15.474;2023-11-18T04:43:26;98259.06;;;1.04;100.00
27202;BME280;14717;46.924;15.474;2023-11-18T04:45:54;98251.44;;;1.12;100.00
27202;BME280;14717;46.924;15.474;2023-11-18T04:48:20;98251.16;;;1.20;100.00
27202;BME280;14717;46.924;15.474;2023-11-18T04:50:47;98260.31;;;1.26;100.00
27202;BME280;14717;46.924;15.474;2023-11-18T04:53:17;98264.97;;;1.19;100.00
27202;BME280;14717;46.924;15.474;2023-11-18T04:55:46;98261.63;;;1.17;100.00
27202;BME280;14717;46.924;15.474;2023-11-18T04:58:11;98268.00;;;1.11;100.00
27202;BME280;14717;46.924;15.474;2023-11-18T05:00:37;98276.03;;;0.99;100.00
27202;BME280;14717;46.924;15.474;2023-11-18T05:03:06;98263.81;;;1.08;100.00
27202;BME280;14717;46.924;15.474;2023-11-18T05:05:38;98261.56;;;1.23;100.00
27202;BME280;14717;46.924;15.474;2023-11-18T05:08:28;98261.28;;;1.31;100.00
27202;BME280;14717;46.924;15.474;2023-11-18T05:10:53;98265.31;;;1.46;100.00
27202;BME280;14717;46.924;15.474;2023-11-18T05:13:19;98277.25;;;1.45;100.00
27202;BME280;14717;46.924;15.474;2023-11-18T05:15:46;98273.84;;;1.50;100.00
27202;BME280;14717;46.924;15.474;2023-11-18T05:18:12;98278.91;;;1.64;100.00
27202;BME280;14717;46.924;15.474;2023-11-18T05:20:43;98272.88;;;1.80;100.00
27202;BME280;14717;46.924;15.474;2023-11-18T05:23:12;98288.16;;;1.81;100.00
27202;BME280;14717;46.924;15.474;2023-11-18T05:25:43;98295.56;;;1.56;100.00
27202;BME280;14717;46.924;15.474;2023-11-18T05:28:11;98296.75;;;1.42;100.00
27202;BME280;14717;46.924;15.474;2023-11-18T05:30:38;98293.44;;;1.58;100.00
27202;BME280;14717;46.924;15.474;2023-11-18T05:33:06;98300.38;;;1.72;100.00
27202;BME280;14717;46.924;15.474;2023-11-18T05:35:32;98295.47;;;1.63;100.00
27202;BME280;14717;46.924;15.474;2023-11-18T05:37:58;98291.63;;;1.52;100.00
27202;BME280;14717;46.924;15.474;2023-11-18T05:40:24;98289.56;;;1.48;100.00
27202;BME280;14717;46.924;15.474;2023-11-18T05:42:53;98287.69;;;1.48;100.00
27202;BME280;14717;46.924;15.474;2023-11-18T05:45:20;98283.16;;;1.60;100.00
27202;BME280;14717;46.924;15.474;2023-11-18T05:47:57;98298.75;;;1.71;100.00
27202;BME280;14717;46.924;15.474;2023-11-18T05:50:23;98307.38;;;1.86;100.00
27202;BME280;14717;46.924;15.474;2023-11-18T05:52:52;98307.50;;;1.91;100.00
27202;BME280;14717;46.924;15.474;2023-11-18T05:55:18;98312.50;;;1.76;100.00
27202;BME280;14717;46.924;15.474;2023-11-18T05:57:43;98313.97;;;1.54;100.00
27202;BME280;14717;46.924;15.474;2023-11-18T06:00:11;98322.38;;;1.35;100.00
27202;BME280;14717;46.924;15.474;2023-11-18T06:02:40;98323.84;;;1.31;100.00
27202;BME280;14717;46.924;15.474;2023-11-18T06:05:06;98328.13;;;1.45;100.00
27202;BME280;14717;46.924;15.474;2023-11-18T06:07:32;98322.84;;;1.50;100.00
27202;BME280;14717;46.924;15.474;2023-11-18T06:09:57;98334.16;;;1.47;100.00
27202;BME280;14717;46.924;15.474;2023-11-18T06:12:23;98331.47;;;1.65;100.00
27202;BME280;14717;46.924;15.474;2023-11-18T06:14:48;98335.03;;;1.83;100.00
27202;BME280;14717;46.924;15.474;2023-11-18T06:17:16;98336.53;;;1.97;100.00
27202;BME280;14717;46.924;15.474;2023-11-18T06:19:43;98337.22;;;2.10;100.00
27202;BME280;14717;46.924;15.474;2023-11-18T06:22:09;98332.63;;;2.11;100.00
27202;BME280;14717;46.924;15.474;2023-11-18T06:24:35;98342.22;;;2.13;100.00
27202;BME280;14717;46.924;15.474;2023-11-18T06:27:01;98350.06;;;1.85;100.00
27202;BME280;14717;46.924;15.474;2023-11-18T06:29:26;98362.84;;;1.67;100.00
27202;BME280;14717;46.924;15.474;2023-11-18T06:31:54;98360.06;;;1.73;100.00
27202;BME280;14717;46.924;15.474;2023-11-18T06:34:20;98360.44;;;1.95;100.00
27202;BME280;14717;46.924;15.474;2023-11-18T06:36:46;98373.38;;;1.81;100.00
27202;BME280;14717;46.924;15.474;2023-11-18T06:39:11;98364.56;;;1.86;100.00
27202;BME280;14717;46.924;15.474;2023-11-18T06:41:38;98359.94;;;1.86;100.00
27202;BME280;14717;46.924;15.474;2023-11-18T06:44:13;98372.25;;;1.89;100.00
27202;BME280;14717;46.924;15.474;2023-11-18T06:46:43;98372.72;;;1.86;100.00
27202;BME280;14717;46.924;15.474;2023-11-18T06:49:09;98358.78;;;1.94;100.00
27202;BME280;14717;46.924;15.474;2023-11-18T06:51:41;98380.34;;;1.95;100.00
27202;BME280;14717;46.924;15.474;2023-11-18T06:54:07;98391.75;;;2.04;100.00
27202;BME280;14717;46.924;15.474;2023-11-18T06:56:36;98392.25;;;2.01;100.00
27202;BME280;14717;46.924;15.474;2023-11-18T06:59:05;98390.44;;;2.12;100.00
27202;BME280;14717;46.924;15.474;2023-11-18T07:01:35;98388.00;;;2.05;100.00
27202;BME280;14717;46.924;15.474;2023-11-18T07:04:01;98375.72;;;2.13;100.00
27202;BME280;14717;46.924;15.474;2023-11-18T07:06:26;98387.56;;;2.25;100.00
27202;BME280;14717;46.924;15.474;2023-11-18T07:08:53;98387.63;;;2.37;100.00
27202;BME280;14717;46.924;15.474;2023-11-18T07:11:20;98405.41;;;2.21;100.00
27202;BME280;14717;46.924;15.474;2023-11-18T07:13:47;98411.59;;;2.28;100.00
27202;BME280;14717;46.924;15.474;2023-11-18T07:16:13;98415.41;;;2.27;100.00
27202;BME280;14717;46.924;15.474;2023-11-18T07:18:40;98398.91;;;2.40;100.00
27202;BME280;14717;46.924;15.474;2023-11-18T07:21:07;98409.31;;;2.43;100.00
27202;BME280;14717;46.924;15.474;2023-11-18T07:23:34;98421.66;;;2.46;100.00
27202;BME280;14717;46.924;15.474;2023-11-18T07:26:00;98425.66;;;2.43;100.00
27202;BME280;14717;46.924;15.474;2023-11-18T07:28:26;98421.66;;;2.63;100.00
27202;BME280;14717;46.924;15.474;2023-11-18T07:30:52;98421.84;;;2.80;100.00
27202;BME280;14717;46.924;15.474;2023-11-18T07:33:19;98419.09;;;2.97;100.00
27202;BME280;14717;46.924;15.474;2023-11-18T07:35:46;98422.31;;;3.06;100.00
27202;BME280;14717;46.924;15.474;2023-11-18T07:38:12;98431.66;;;2.98;100.00
27202;BME280;14717;46.924;15.474;2023-11-18T07:40:38;98412.91;;;3.02;100.00
27202;BME280;14717;46.924;15.474;2023-11-18T07:43:08;98422.81;;;3.14;100.00
27202;BME280;14717;46.924;15.474;2023-11-18T07:45:38;98439.59;;;3.29;100.00
27202;BME280;14717;46.924;15.474;2023-11-18T07:48:06;98434.66;;;3.49;100.00
27202;BME280;14717;46.924;15.474;2023-11-18T07:50:49;98425.41;;;3.61;100.00
27202;BME280;14717;46.924;15.474;2023-11-18T07:53:16;98421.28;;;3.81;100.00
27202;BME280;14717;46.924;15.474;2023-11-18T07:55:41;98435.66;;;3.88;100.00
27202;BME280;14717;46.924;15.474;2023-11-18T07:58:08;98422.34;;;4.03;100.00
27202;BME280;14717;46.924;15.474;2023-11-18T08:00:42;98416.19;;;4.08;100.00
27202;BME280;14717;46.924;15.474;2023-11-18T08:03:08;98426.72;;;4.27;100.00
27202;BME280;14717;46.924;15.474;2023-11-18T08:05:41;98427.91;;;4.42;100.00
27202;BME280;14717;46.924;15.474;2023-11-18T08:08:07;98428.69;;;4.65;100.00
27202;BME280;14717;46.924;15.474;2023-11-18T08:10:36;98413.16;;;4.82;100.00
27202;BME280;14717;46.924;15.474;2023-11-18T08:13:04;98414.38;;;5.03;99.50
27202;BME280;14717;46.924;15.474;2023-11-18T08:15:30;98417.06;;;5.14;93.53
27202;BME280;14717;46.924;15.474;2023-11-18T08:17:56;98420.25;;;5.22;91.76
27202;BME280;14717;46.924;15.474;2023-11-18T08:20:21;98421.28;;;5.33;92.02
27202;BME280;14717;46.924;15.474;2023-11-18T08:22:50;98419.97;;;5.51;89.11
27202;BME280;14717;46.924;15.474;2023-11-18T08:25:15;98416.19;;;5.69;87.37
27202;BME280;14717;46.924;15.474;2023-11-18T08:27:45;98409.31;;;5.83;86.93
27202;BME280;14717;46.924;15.474;2023-11-18T08:30:11;98406.47;;;5.94;84.30
27202;BME280;14717;46.924;15.474;2023-11-18T08:32:38;98406.06;;;6.02;81.92
27202;BME280;14717;46.924;15.474;2023-11-18T08:35:07;98410.03;;;6.11;82.91
27202;BME280;14717;46.924;15.474;2023-11-18T08:37:40;98420.22;;;6.32;83.39
27202;BME280;14717;46.924;15.474;2023-11-18T08:40:07;98415.97;;;6.40;79.87
27202;BME280;14717;46.924;15.474;2023-11-18T08:42:41;98417.81;;;6.35;79.64
27202;BME280;14717;46.924;15.474;2023-11-18T08:45:20;98415.84;;;6.52;78.05
27202;BME280;14717;46.924;15.474;2023-11-18T08:47:54;98413.81;;;6.85;78.24
27202;BME280;14717;46.924;15.474;2023-11-18T08:50:20;98428.22;;;6.92;78.92
27202;BME280;14717;46.924;15.474;2023-11-18T08:52:50;98419.50;;;7.00;79.95
27202;BME280;14717;46.924;15.474;2023-11-18T08:55:20;98425.28;;;7.24;78.88
27202;BME280;14717;46.924;15.474;2023-11-18T08:57:48;98423.19;;;7.31;77.65
27202;BME280;14717;46.924;15.474;2023-11-18T09:00:25;98414.88;;;7.53;76.34
27202;BME280;14717;46.924;15.474;2023-11-18T09:03:10;98422.28;;;7.52;71.90
27202;BME280;14717;46.924;15.474;2023-11-18T09:05:45;98422.84;;;7.54;73.44
27202;BME280;14717;46.924;15.474;2023-11-18T09:08:30;98427.75;;;7.78;71.26
27202;BME280;14717;46.924;15.474;2023-11-18T09:11:08;98424.44;;;8.07;70.73
27202;BME280;14717;46.924;15.474;2023-11-18T09:13:36;98418.09;;;8.38;69.47
27202;BME280;14717;46.924;15.474;2023-11-18T09:16:06;98421.50;;;8.55;69.25
27202;BME280;14717;46.924;15.474;2023-11-18T09:18:37;98423.84;;;8.78;66.74
27202;BME280;14717;46.924;15.474;2023-11-18T09:21:05;98413.94;;;8.82;67.10
27202;BME280;14717;46.924;15.474;2023-11-18T09:23:35;98415.03;;;8.81;64.13
27202;BME280;14717;46.924;15.474;2023-11-18T09:26:01;98415.75;;;9.12;64.59
27202;BME280;14717;46.924;15.474;2023-11-18T09:28:28;98408.84;;;9.20;63.78
27202;BME280;14717;46.924;15.474;2023-11-18T09:30:55;98412.47;;;9.25;61.97
27202;BME280;14717;46.924;15.474;2023-11-18T09:33:27;98412.44;;;9.15;63.44
27202;BME280;14717;46.924;15.474;2023-11-18T09:36:04;98409.78;;;9.55;64.60
27202;BME280;14717;46.924;15.474;2023-11-18T09:38:36;98416.97;;;9.71;61.73
27202;BME280;14717;46.924;15.474;2023-11-18T09:41:07;98422.81;;;9.94;62.30
27202;BME280;14717;46.924;15.474;2023-11-18T09:43:36;98420.38;;;10.17;67.15
27202;BME280;14717;46.924;15.474;2023-11-18T09:46:15;98424.75;;;10.43;62.11
27202;BME280;14717;46.924;15.474;2023-11-18T09:48:46;98418.66;;;10.51;61.26
27202;BME280;14717;46.924;15.474;2023-11-18T09:51:15;98428.03;;;10.55;60.87
27202;BME280;14717;46.924;15.474;2023-11-18T09:53:44;98426.34;;;10.73;61.18
27202;BME280;14717;46.924;15.474;2023-11-18T09:56:19;98433.03;;;10.53;59.79
27202;BME280;14717;46.924;15.474;2023-11-18T09:59:05;98428.88;;;10.60;55.07
27202;BME280;14717;46.924;15.474;2023-11-18T10:01:34;98424.41;;;10.79;53.26
27202;BME280;14717;46.924;15.474;2023-11-18T10:04:09;98426.84;;;10.90;50.62
27202;BME280;14717;46.924;15.474;2023-11-18T10:06:36;98420.13;;;11.21;52.69
27202;BME280;14717;46.924;15.474;2023-11-18T10:09:07;98426.16;;;11.33;51.47
27202;BME280;14717;46.924;15.474;2023-11-18T10:11:47;98420.28;;;11.49;53.03
27202;BME280;14717;46.924;15.474;2023-11-18T10:14:14;98419.16;;;11.45;48.74
27202;BME280;14717;46.924;15.474;2023-11-18T10:16:42;98422.34;;;11.77;50.77
27202;BME280;14717;46.924;15.474;2023-11-18T10:19:11;98428.75;;;11.67;49.13
27202;BME280;14717;46.924;15.474;2023-11-18T10:21:37;98430.06;;;11.75;49.44
27202;BME280;14717;46.924;15.474;2023-11-18T10:24:08;98426.63;;;11.49;47.27
27202;BME280;14717;46.924;15.474;2023-11-18T10:26:56;98423.28;;;11.57;50.15
27202;BME280;14717;46.924;15.474;2023-11-18T10:29:34;98412.78;;;11.45;48.46
27202;BME280;14717;46.924;15.474;2023-11-18T10:33:11;98417.19;;;11.60;48.06
27202;BME280;14717;46.924;15.474;2023-11-18T10:35:20;98410.59;;;11.47;47.11
27202;BME280;14717;46.924;15.474;2023-11-18T10:37:46;98409.50;;;11.48;48.35
27202;BME280;14717;46.924;15.474;2023-11-18T10:40:14;98427.53;;;11.30;46.07
27202;BME280;14717;46.924;15.474;2023-11-18T10:42:40;98413.66;;;11.35;47.98
27202;BME280;14717;46.924;15.474;2023-11-18T10:45:08;98412.84;;;11.35;45.37
27202;BME280;14717;46.924;15.474;2023-11-18T10:47:42;98396.22;;;11.40;46.51
27202;BME280;14717;46.924;15.474;2023-11-18T10:50:08;98402.84;;;11.53;47.58
27202;BME280;14717;46.924;15.474;2023-11-18T10:52:35;98380.13;;;11.51;46.85
27202;BME280;14717;46.924;15.474;2023-11-18T11:03:00;98365.59;;;12.35;50.31
27202;BME280;14717;46.924;15.474;2023-11-18T11:05:30;98380.59;;;11.68;47.42
27202;BME280;14717;46.924;15.474;2023-11-18T11:08:04;98378.50;;;11.50;46.57
27202;BME280;14717;46.924;15.474;2023-11-18T11:10:32;98383.69;;;11.62;46.66
27202;BME280;14717;46.924;15.474;2023-11-18T11:13:00;98385.69;;;11.42;46.17
27202;BME280;14717;46.924;15.474;2023-11-18T11:15:31;98394.03;;;11.37;45.90
27202;BME280;14717;46.924;15.474;2023-11-18T11:18:12;98397.34;;;11.44;46.79
27202;BME280;14717;46.924;15.474;2023-11-18T11:21:28;98388.47;;;11.47;45.00
27202;BME280;14717;46.924;15.474;2023-11-18T11:24:05;98401.38;;;11.61;45.09
27202;BME280;14717;46.924;15.474;2023-11-18T11:29:51;98391.78;;;11.44;45.13
27202;BME280;14717;46.924;15.474;2023-11-18T11:32:39;98392.84;;;11.57;45.15
27202;BME280;14717;46.924;15.474;2023-11-18T11:35:23;98401.72;;;11.49;43.46
27202;BME280;14717;46.924;15.474;2023-11-18T11:37:53;98397.34;;;11.48;43.18
27202;BME280;14717;46.924;15.474;2023-11-18T11:44:55;98386.88;;;11.79;44.89
27202;BME280;14717;46.924;15.474;2023-11-18T11:48:14;98393.91;;;11.61;43.07
27202;BME280;14717;46.924;15.474;2023-11-18T11:57:08;98389.13;;;12.10;42.36
27202;BME280;14717;46.924;15.474;2023-11-18T12:06:00;98395.53;;;11.67;44.32
27202;BME280;14717;46.924;15.474;2023-11-18T12:08:36;98379.50;;;11.64;44.33
27202;BME280;14717;46.924;15.474;2023-11-18T12:11:59;98390.34;;;11.94;43.99
27202;BME280;14717;46.924;15.474;2023-11-18T12:14:51;98393.66;;;11.58;43.52
27202;BME280;14717;46.924;15.474;2023-11-18T12:27:40;98406.41;;;11.54;43.73
27202;BME280;14717;46.924;15.474;2023-11-18T12:48:16;98407.31;;;11.35;44.40
27202;BME280;14717;46.924;15.474;2023-11-18T12:53:56;98422.50;;;11.42;43.86
27202;BME280;14717;46.924;15.474;2023-11-18T12:56:42;98411.16;;;11.44;43.03
27202;BME280;14717;46.924;15.474;2023-11-18T13:02:36;98429.41;;;11.45;43.73
27202;BME280;14717;46.924;15.474;2023-11-18T13:05:36;98420.56;;;11.48;43.43
27202;BME280;14717;46.924;15.474;2023-11-18T13:08:05;98421.94;;;11.40;42.58
27202;BME280;14717;46.924;15.474;2023-11-18T13:14:25;98441.63;;;11.39;42.94
27202;BME280;14717;46.924;15.474;2023-11-18T13:27:00;98439.44;;;11.31;42.53
27202;BME280;14717;46.924;15.474;2023-11-18T13:33:23;98444.38;;;11.34;43.20
27202;BME280;14717;46.924;15.474;2023-11-18T13:37:17;98440.03;;;11.18;42.78
27202;BME280;14717;46.924;15.474;2023-11-18T13:44:14;98434.47;;;11.28;42.12
27202;BME280;14717;46.924;15.474;2023-11-18T13:47:42;98432.28;;;11.20;42.96
27202;BME280;14717;46.924;15.474;2023-11-18T13:57:47;98433.47;;;10.94;43.39
27202;BME280;14717;46.924;15.474;2023-11-18T14:03:31;98431.88;;;10.83;42.92
27202;BME280;14717;46.924;15.474;2023-11-18T14:06:30;98438.50;;;10.77;43.50
27202;BME280;14717;46.924;15.474;2023-11-18T14:13:13;98421.69;;;10.64;43.93
27202;BME280;14717;46.924;15.474;2023-11-18T14:16:02;98420.84;;;10.68;44.63
27202;BME280;14717;46.924;15.474;2023-11-18T14:18:54;98422.50;;;10.55;44.97
27202;BME280;14717;46.924;15.474;2023-11-18T14:22:03;98426.16;;;10.45;45.05
27202;BME280;14717;46.924;15.474;2023-11-18T14:24:47;98420.06;;;10.33;45.69
27202;BME280;14717;46.924;15.474;2023-11-18T14:27:26;98405.16;;;10.24;45.54
27202;BME280;14717;46.924;15.474;2023-11-18T14:35:29;98425.81;;;9.87;46.59
27202;BME280;14717;46.924;15.474;2023-11-18T14:38:15;98428.03;;;9.80;46.10
27202;BME280;14717;46.924;15.474;2023-11-18T14:40:55;98439.59;;;9.77;46.39
27202;BME280;14717;46.924;15.474;2023-11-18T14:43:27;98439.59;;;9.82;45.68
27202;BME280;14717;46.924;15.474;2023-11-18T14:46:09;98452.84;;;9.80;45.84
27202;BME280;14717;46.924;15.474;2023-11-18T14:49:22;98459.50;;;9.75;45.57
27202;BME280;14717;46.924;15.474;2023-11-18T14:51:53;98464.16;;;9.69;45.65
27202;BME280;14717;46.924;15.474;2023-11-18T14:54:28;98461.66;;;9.63;46.66
27202;BME280;14717;46.924;15.474;2023-11-18T14:57:03;98471.03;;;9.57;46.82
27202;BME280;14717;46.924;15.474;2023-11-18T14:59:41;98473.25;;;9.60;46.62